createdAt,value
2022-10-19T00:01:08.506Z,117.82
2022-10-19T00:03:35.326Z,84.68
2022-10-19T00:06:10.467Z,146.55
2022-10-19T00:08:36.736Z,61.97
2022-10-19T00:11:03.031Z,44.83
2022-10-19T00:13:29.301Z,53.38
2022-10-19T00:15:55.565Z,43.13
2022-10-19T00:18:21.937Z,20.42
2022-10-19T00:20:48.325Z,21.95
2022-10-19T00:23:14.762Z,11.27
2022-10-19T00:25:41.037Z,9.80
2022-10-19T00:28:07.326Z,10.68
2022-10-19T00:30:36.420Z,8.98
2022-10-19T00:33:04.555Z,8.32
2022-10-19T00:35:30.818Z,10.35
2022-10-19T00:37:57.085Z,8.43
2022-10-19T00:40:23.355Z,9.95
2022-10-19T00:42:54.193Z,9.18
2022-10-19T00:45:20.467Z,8.00
2022-10-19T00:47:46.989Z,13.63
2022-10-19T00:50:14.535Z,10.15
2022-10-19T00:52:40.997Z,12.38
2022-10-19T00:55:07.879Z,11.38
2022-10-19T01:00:01.076Z,11.05
2022-10-19T01:02:27.391Z,10.88
2022-10-19T01:04:53.803Z,10.20
2022-10-19T01:07:20.308Z,12.13
2022-10-19T01:09:46.603Z,10.13
2022-10-19T01:12:31.386Z,18.48
2022-10-19T01:15:09.406Z,10.10
2022-10-19T01:17:54.408Z,8.65
2022-10-19T01:20:39.459Z,7.53
2022-10-19T01:23:25.989Z,9.05
2022-10-19T01:25:57.989Z,8.48
2022-10-19T01:28:36.438Z,7.22
2022-10-19T01:31:07.643Z,7.53
2022-10-19T01:33:40.033Z,8.13
2022-10-19T01:36:15.831Z,7.28
2022-10-19T01:38:50.788Z,10.30
2022-10-19T01:41:17.111Z,8.07
2022-10-19T01:43:48.225Z,7.10
2022-10-19T01:46:19.343Z,7.30
2022-10-19T01:48:48.350Z,7.97
2022-10-19T01:51:19.639Z,7.45
2022-10-19T01:53:47.618Z,7.10
2022-10-19T01:56:14.388Z,7.70
2022-10-19T01:58:42.985Z,7.25
2022-10-19T02:03:37.894Z,7.38
2022-10-19T02:06:05.985Z,5.68
2022-10-19T02:08:37.882Z,9.52
2022-10-19T02:11:04.292Z,7.00
2022-10-19T02:13:30.642Z,7.50
2022-10-19T02:15:58.518Z,6.10
2022-10-19T02:18:32.883Z,6.80
2022-10-19T02:21:00.511Z,6.32
2022-10-19T02:23:27.662Z,6.53
2022-10-19T02:25:54.401Z,5.75
2022-10-19T02:28:21.860Z,5.63
2022-10-19T02:33:17.486Z,5.47
2022-10-19T02:35:43.959Z,6.93
2022-10-19T02:38:11.322Z,6.68
2022-10-19T02:40:39.693Z,7.03
2022-10-19T02:43:09.548Z,5.78
2022-10-19T02:45:38.217Z,6.25
2022-10-19T02:48:09.979Z,7.10
2022-10-19T02:50:36.352Z,5.13
2022-10-19T02:53:02.773Z,7.05
2022-10-19T02:55:30.540Z,5.85
2022-10-19T02:57:57.300Z,6.97
2022-10-19T03:00:23.607Z,7.90
2022-10-19T03:02:51.030Z,6.03
2022-10-19T03:05:17.290Z,5.60
2022-10-19T03:07:43.606Z,5.70
2022-10-19T03:10:10.096Z,6.63
2022-10-19T03:12:36.489Z,7.25
2022-10-19T03:15:03.142Z,5.93
2022-10-19T03:17:29.401Z,6.97
2022-10-19T03:19:55.831Z,7.70
2022-10-19T03:22:22.175Z,5.72
2022-10-19T03:24:48.504Z,6.28
2022-10-19T03:27:14.821Z,6.03
2022-10-19T03:29:41.242Z,9.15
2022-10-19T03:32:07.685Z,7.18
2022-10-19T03:34:33.973Z,6.07
2022-10-19T03:37:00.298Z,6.85
2022-10-19T03:39:26.577Z,6.20
2022-10-19T03:41:52.854Z,6.20
2022-10-19T03:44:19.137Z,8.43
2022-10-19T03:46:45.418Z,6.63
2022-10-19T03:49:11.854Z,5.30
2022-10-19T03:51:38.169Z,10.98
2022-10-19T03:54:05.901Z,7.30
2022-10-19T03:56:33.662Z,7.63
2022-10-19T03:59:00.758Z,12.40
2022-10-19T04:01:28.471Z,6.15
2022-10-19T04:03:55.486Z,5.38
2022-10-19T04:08:48.971Z,6.97
2022-10-19T04:11:16.502Z,6.22
2022-10-19T04:13:42.769Z,5.88
2022-10-19T04:16:09.827Z,8.07
2022-10-19T04:18:36.151Z,5.40
2022-10-19T04:21:04.372Z,8.25
2022-10-19T04:23:32.287Z,5.00
2022-10-19T04:26:01.577Z,6.60
2022-10-19T04:28:27.956Z,5.80
2022-10-19T04:30:54.317Z,6.25
2022-10-19T04:33:20.577Z,8.05
2022-10-19T04:35:46.845Z,6.30
2022-10-19T04:38:13.170Z,6.18
2022-10-19T04:40:39.426Z,6.32
2022-10-19T04:43:05.702Z,7.85
2022-10-19T04:45:34.994Z,11.38
2022-10-19T04:48:01.862Z,8.32
2022-10-19T04:52:55.155Z,7.40
2022-10-19T04:55:21.596Z,6.95
2022-10-19T04:57:48.425Z,6.60
2022-10-19T05:02:44.727Z,10.38
2022-10-19T05:05:11.762Z,9.98
2022-10-19T05:07:38.057Z,8.60
2022-10-19T05:10:04.766Z,10.52
2022-10-19T05:12:31.075Z,9.95
2022-10-19T05:14:57.337Z,9.40
2022-10-19T05:17:23.655Z,8.18
2022-10-19T05:19:49.909Z,8.10
2022-10-19T05:22:16.194Z,7.72
2022-10-19T05:24:42.467Z,6.85
2022-10-19T05:27:08.738Z,7.30
2022-10-19T05:29:35.137Z,7.57
2022-10-19T05:32:01.416Z,6.78
2022-10-19T05:34:27.669Z,6.88
2022-10-19T05:36:54.879Z,6.55
2022-10-19T05:39:21.141Z,6.43
2022-10-19T05:41:47.750Z,8.02
2022-10-19T05:44:21.469Z,7.78
2022-10-19T05:46:48.845Z,6.15
2022-10-19T05:49:15.594Z,5.55
2022-10-19T05:51:41.906Z,8.25
2022-10-19T05:54:08.428Z,5.90
2022-10-19T05:56:34.738Z,13.93
2022-10-19T05:59:02.147Z,8.82
2022-10-19T06:01:29.252Z,9.98
2022-10-19T06:03:56.716Z,9.20
2022-10-19T06:06:23.759Z,9.40
2022-10-19T06:08:50.479Z,10.70
2022-10-19T06:11:18.785Z,8.32
2022-10-19T06:13:45.723Z,9.95
2022-10-19T06:18:38.572Z,8.32
2022-10-19T06:21:06.435Z,10.55
2022-10-19T06:23:33.633Z,11.25
2022-10-19T06:26:02.180Z,9.75
2022-10-19T06:28:28.535Z,9.05
2022-10-19T06:30:56.949Z,8.52
2022-10-19T06:33:23.226Z,7.95
2022-10-19T06:35:49.569Z,9.77
2022-10-19T06:38:16.076Z,7.47
2022-10-19T06:40:42.342Z,6.93
2022-10-19T06:43:08.638Z,7.80
2022-10-19T06:45:37.363Z,7.38
2022-10-19T06:48:07.470Z,8.70
2022-10-19T06:50:34.223Z,9.98
2022-10-19T06:53:00.662Z,12.80
2022-10-19T06:55:26.930Z,7.90
2022-10-19T06:57:53.195Z,7.10
2022-10-19T07:00:19.490Z,10.07
2022-10-19T07:02:45.772Z,10.32
2022-10-19T07:05:12.043Z,12.45
2022-10-19T07:07:38.496Z,10.98
2022-10-19T07:10:05.148Z,12.50
2022-10-19T07:12:31.462Z,9.45
2022-10-19T07:14:58.065Z,11.85
2022-10-19T07:17:24.337Z,7.03
2022-10-19T07:19:50.617Z,12.30
2022-10-19T07:22:21.238Z,8.02
2022-10-19T07:24:49.512Z,7.35
2022-10-19T07:27:15.914Z,9.50
2022-10-19T07:29:42.274Z,11.82
2022-10-19T07:32:08.529Z,10.30
2022-10-19T07:34:34.807Z,14.13
2022-10-19T07:37:01.237Z,8.27
2022-10-19T07:39:27.502Z,8.85
2022-10-19T07:41:53.780Z,9.98
2022-10-19T07:44:20.041Z,10.60
2022-10-19T07:46:46.314Z,9.57
2022-10-19T07:49:16.475Z,10.90
2022-10-19T07:51:42.797Z,12.52
2022-10-19T07:54:09.185Z,10.75
2022-10-19T07:56:35.995Z,9.85
2022-10-19T08:01:30.132Z,7.82
2022-10-19T08:06:43.183Z,11.90
2022-10-19T08:09:11.294Z,11.52
2022-10-19T08:11:42.224Z,13.43
2022-10-19T08:14:08.533Z,12.48
2022-10-19T08:16:37.349Z,12.25
2022-10-19T08:19:05.647Z,8.90
2022-10-19T08:21:31.904Z,9.95
2022-10-19T08:23:58.650Z,9.75
2022-10-19T08:28:51.217Z,9.32
2022-10-19T08:31:19.626Z,12.45
2022-10-19T08:33:46.095Z,13.63
2022-10-19T08:36:13.454Z,12.88
2022-10-19T08:38:40.146Z,9.70
2022-10-19T08:43:36.550Z,11.63
2022-10-19T08:46:23.075Z,11.95
2022-10-19T08:48:49.503Z,12.52
2022-10-19T08:51:15.779Z,9.23
2022-10-19T08:54:02.375Z,9.63
2022-10-19T08:56:51.139Z,9.23
2022-10-19T08:59:34.529Z,8.25
2022-10-19T09:02:00.787Z,12.48
2022-10-19T09:04:32.617Z,13.48
2022-10-19T09:07:11.072Z,8.82
2022-10-19T09:12:19.310Z,10.75
2022-10-19T09:14:54.650Z,7.55
2022-10-19T09:17:21.004Z,11.15
2022-10-19T09:19:47.367Z,9.85
2022-10-19T09:22:21.712Z,5.97
2022-10-19T09:25:26.323Z,7.78
2022-10-19T09:28:03.236Z,6.78
2022-10-19T09:30:30.090Z,8.82
2022-10-19T09:33:00.652Z,9.02
2022-10-19T09:35:41.358Z,9.68
2022-10-19T09:38:07.802Z,8.23
2022-10-19T09:40:34.485Z,6.95
2022-10-19T09:45:41.503Z,7.80
2022-10-19T09:48:28.767Z,8.88
2022-10-19T09:50:59.042Z,7.03
2022-10-19T09:53:26.651Z,7.60
2022-10-19T09:56:00.377Z,5.38
2022-10-19T09:58:30.531Z,6.00
2022-10-19T10:00:59.848Z,5.78
2022-10-19T10:03:27.712Z,10.40
2022-10-19T10:05:55.678Z,7.43
2022-10-19T10:08:23.796Z,5.50
2022-10-19T10:10:59.266Z,5.07
2022-10-19T10:13:27.491Z,3.53
2022-10-19T10:15:58.968Z,5.85
2022-10-19T10:18:25.967Z,5.88
2022-10-19T10:25:55.690Z,7.40
2022-10-19T10:28:23.272Z,6.20
2022-10-19T10:30:52.895Z,3.63
2022-10-19T10:33:40.360Z,4.10
2022-10-19T10:36:11.202Z,7.07
2022-10-19T10:41:07.615Z,7.05
2022-10-19T10:43:36.538Z,6.07
2022-10-19T10:46:07.519Z,5.53
2022-10-19T10:48:40.990Z,9.40
2022-10-19T10:51:10.120Z,3.45
2022-10-19T10:53:40.984Z,7.30
2022-10-19T10:56:20.999Z,4.57
2022-10-19T10:58:49.815Z,4.97
2022-10-19T11:01:19.155Z,6.53
2022-10-19T11:03:50.598Z,5.63
2022-10-19T11:06:17.162Z,7.72
2022-10-19T11:11:14.015Z,7.88
2022-10-19T11:13:43.427Z,6.10
2022-10-19T11:16:14.803Z,7.60
2022-10-19T11:18:43.321Z,6.88
2022-10-19T11:21:11.426Z,15.30
2022-10-19T11:23:56.567Z,4.45
2022-10-19T11:26:35.106Z,3.03
2022-10-19T11:29:20.279Z,5.65
2022-10-19T11:31:52.802Z,6.97
2022-10-19T11:34:37.967Z,6.95
2022-10-19T11:37:16.406Z,6.17
2022-10-19T11:39:47.933Z,7.68
2022-10-19T11:42:42.275Z,4.90
2022-10-19T11:45:15.729Z,3.95
2022-10-19T11:47:52.029Z,6.00
2022-10-19T11:52:50.647Z,8.25
2022-10-19T11:55:27.007Z,5.65
2022-10-19T12:03:31.629Z,9.23
2022-10-19T12:06:09.258Z,5.00
2022-10-19T12:08:41.855Z,6.60
2022-10-19T12:11:24.262Z,7.10
2022-10-19T12:13:52.593Z,7.80
2022-10-19T12:16:19.879Z,5.22
2022-10-19T12:18:47.591Z,5.88
2022-10-19T12:21:23.198Z,3.80
2022-10-19T12:23:50.105Z,6.97
2022-10-19T12:28:50.479Z,6.22
2022-10-19T12:31:17.430Z,3.83
2022-10-19T12:34:02.152Z,8.90
2022-10-19T12:36:52.436Z,3.80
2022-10-19T12:39:34.980Z,4.68
2022-10-19T12:42:27.544Z,6.13
2022-10-19T12:45:07.173Z,4.50
2022-10-19T12:47:33.940Z,5.82
2022-10-19T12:50:00.754Z,5.60
2022-10-19T12:52:44.894Z,5.93
2022-10-19T12:55:34.666Z,3.35
2022-10-19T12:58:03.660Z,6.60
2022-10-19T13:00:36.641Z,6.22
2022-10-19T13:03:17.734Z,5.75
2022-10-19T13:05:55.138Z,4.60
2022-10-19T13:08:28.075Z,5.28
2022-10-19T13:11:04.762Z,6.90
2022-10-19T13:13:50.966Z,7.97
2022-10-19T13:16:29.602Z,6.72
2022-10-19T13:18:58.955Z,4.97
2022-10-19T13:21:48.102Z,8.70
2022-10-19T13:24:26.242Z,4.78
2022-10-19T13:27:04.536Z,4.03
2022-10-19T13:29:39.780Z,6.10
2022-10-19T13:32:24.549Z,5.78
2022-10-19T13:34:50.859Z,3.13
2022-10-19T13:37:18.407Z,5.45
2022-10-19T13:39:44.691Z,4.78
2022-10-19T13:42:27.158Z,8.40
2022-10-19T13:44:53.626Z,3.53
2022-10-19T13:47:23.112Z,5.28
2022-10-19T13:50:01.399Z,4.75
2022-10-19T13:52:36.819Z,5.15
2022-10-19T13:55:18.479Z,4.45
2022-10-19T13:57:50.105Z,4.93
2022-10-19T14:00:19.890Z,4.82
2022-10-19T14:03:06.724Z,4.65
2022-10-19T14:08:28.661Z,7.55
2022-10-19T14:11:18.929Z,5.22
2022-10-19T14:13:45.651Z,6.22
2022-10-19T14:16:21.627Z,4.75
2022-10-19T14:21:14.082Z,4.47
2022-10-19T14:23:40.422Z,4.10
2022-10-19T14:28:33.510Z,3.95
2022-10-19T14:31:00.943Z,3.45
2022-10-19T14:33:28.887Z,7.57
2022-10-19T14:35:55.456Z,6.88
2022-10-19T14:38:25.972Z,4.85
2022-10-19T14:40:52.288Z,3.13
2022-10-19T14:43:18.536Z,5.75
2022-10-19T14:45:44.848Z,4.07
2022-10-19T14:48:16.843Z,6.22
2022-10-19T14:50:46.825Z,4.85
2022-10-19T14:53:16.169Z,6.43
2022-10-19T14:55:42.774Z,3.88
2022-10-19T14:58:15.517Z,6.60
2022-10-19T15:00:42.348Z,4.75
2022-10-19T15:03:11.577Z,7.80
2022-10-19T15:05:41.632Z,4.25
2022-10-19T15:08:17.032Z,6.13
2022-10-19T15:10:47.237Z,7.77
2022-10-19T15:13:19.499Z,4.60
2022-10-19T15:15:50.079Z,6.15
2022-10-19T15:18:43.487Z,6.40
2022-10-19T15:21:12.639Z,6.03
2022-10-19T15:23:43.745Z,9.65
2022-10-19T15:26:17.370Z,6.55
2022-10-19T15:28:44.482Z,7.40
2022-10-19T15:31:15.520Z,5.93
2022-10-19T15:33:49.519Z,9.85
2022-10-19T15:36:19.833Z,4.72
2022-10-19T15:38:47.174Z,7.65
2022-10-19T15:41:20.858Z,6.45
2022-10-19T15:43:48.372Z,7.35
2022-10-19T15:46:23.756Z,4.68
2022-10-19T15:48:55.462Z,5.20
2022-10-19T15:51:24.751Z,3.95
2022-10-19T15:53:58.383Z,10.00
2022-10-19T15:56:25.747Z,5.43
2022-10-19T15:58:53.135Z,7.43
2022-10-19T16:01:20.739Z,8.07
2022-10-19T16:03:47.153Z,6.65
2022-10-19T16:06:13.514Z,5.68
2022-10-19T16:08:39.804Z,5.43
2022-10-19T16:11:08.850Z,8.00
2022-10-19T16:13:35.121Z,5.10
2022-10-19T16:16:10.577Z,6.63
2022-10-19T16:18:37.755Z,6.78
2022-10-19T16:23:32.612Z,6.95
2022-10-19T16:26:00.432Z,6.47
2022-10-19T16:28:26.713Z,7.88
2022-10-19T16:30:53.899Z,14.23
2022-10-19T16:33:20.254Z,7.20
2022-10-19T16:35:46.527Z,7.82
2022-10-19T16:38:12.878Z,5.43
2022-10-19T16:40:39.182Z,8.75
2022-10-19T16:43:05.631Z,6.70
2022-10-19T16:45:31.983Z,11.30
2022-10-19T16:47:58.345Z,8.57
2022-10-19T16:50:24.703Z,8.35
2022-10-19T16:53:10.056Z,8.55
2022-10-19T16:55:37.038Z,9.63
2022-10-19T16:58:03.475Z,9.68
2022-10-19T17:00:29.908Z,8.65
2022-10-19T17:02:56.228Z,9.82
2022-10-19T17:05:22.505Z,7.25
2022-10-19T17:07:48.763Z,6.00
2022-10-19T17:10:16.381Z,9.52
2022-10-19T17:12:42.991Z,9.85
2022-10-19T17:17:57.874Z,10.50
2022-10-19T17:20:24.130Z,7.22
2022-10-19T17:22:51.954Z,9.73
2022-10-19T17:25:18.230Z,12.57
2022-10-19T17:27:44.530Z,10.85
2022-10-19T17:30:10.896Z,8.95
2022-10-19T17:32:39.690Z,9.98
2022-10-19T17:35:06.407Z,9.68
2022-10-19T17:42:25.747Z,11.20
2022-10-19T17:47:18.390Z,10.45
2022-10-19T17:49:44.683Z,10.32
2022-10-19T17:52:10.934Z,7.25
2022-10-19T17:54:48.553Z,11.05
2022-10-19T17:57:23.985Z,10.63
2022-10-19T17:59:53.013Z,11.90
2022-10-19T18:02:19.575Z,11.90
2022-10-19T18:04:46.009Z,10.00
2022-10-19T18:07:12.261Z,8.82
2022-10-19T18:09:38.555Z,11.55
2022-10-19T18:12:07.563Z,8.88
2022-10-19T18:14:33.985Z,8.80
2022-10-19T18:17:00.263Z,7.93
2022-10-19T18:19:26.534Z,8.52
2022-10-19T18:21:53.322Z,9.88
2022-10-19T18:26:48.587Z,8.02
2022-10-19T18:29:16.261Z,10.00
2022-10-19T18:31:42.693Z,7.65
2022-10-19T18:34:12.521Z,8.02
2022-10-19T18:36:38.819Z,8.90
2022-10-19T18:39:05.523Z,8.68
2022-10-19T18:43:59.458Z,8.30
2022-10-19T18:46:26.090Z,6.90
2022-10-19T18:51:19.113Z,7.20
2022-10-19T18:56:12.651Z,5.75
2022-10-19T18:58:39.136Z,7.20
2022-10-19T19:01:06.563Z,5.07
2022-10-19T19:03:33.332Z,8.70
2022-10-19T19:06:07.321Z,10.60
2022-10-19T19:08:33.859Z,7.35
2022-10-19T19:11:11.227Z,9.00
2022-10-19T19:13:37.802Z,11.45
2022-10-19T19:16:04.567Z,8.30
2022-10-19T19:18:33.619Z,12.25
2022-10-19T19:21:00.613Z,8.02
2022-10-19T19:23:26.930Z,9.07
2022-10-19T19:25:53.793Z,7.78
2022-10-19T19:28:20.071Z,9.80
2022-10-19T19:30:46.726Z,8.85
2022-10-19T19:35:43.027Z,6.75
2022-10-19T19:38:09.719Z,7.88
2022-10-19T19:43:02.227Z,8.95
2022-10-19T19:45:28.498Z,11.25
2022-10-19T19:47:54.741Z,10.23
2022-10-19T19:50:21.017Z,9.68
2022-10-19T19:52:48.483Z,6.90
2022-10-19T19:55:14.922Z,14.50
2022-10-19T19:57:42.673Z,7.55
2022-10-19T20:00:09.743Z,7.75
2022-10-19T20:02:39.235Z,8.70
2022-10-19T20:05:05.598Z,7.93
2022-10-19T20:07:31.888Z,7.50
2022-10-19T20:09:58.200Z,10.30
2022-10-19T20:12:24.489Z,8.43
2022-10-19T20:14:50.839Z,8.95
2022-10-19T20:17:17.131Z,9.65
2022-10-19T20:19:43.464Z,10.85
2022-10-19T20:22:09.874Z,8.38
2022-10-19T20:24:37.695Z,11.80
2022-10-19T20:27:04.168Z,9.75
2022-10-19T20:29:30.483Z,11.23
2022-10-19T20:31:56.878Z,9.85
2022-10-19T20:34:24.033Z,9.45
2022-10-19T20:36:50.442Z,6.32
2022-10-19T20:39:17.583Z,7.70
2022-10-19T20:41:43.842Z,8.00
2022-10-19T20:44:10.103Z,7.60
2022-10-19T20:46:36.932Z,8.63
2022-10-19T20:49:03.500Z,7.53
2022-10-19T20:51:32.434Z,8.55
2022-10-19T20:53:59.795Z,8.18
2022-10-19T20:56:27.395Z,8.57
2022-10-19T20:58:55.368Z,7.13
2022-10-19T21:01:22.051Z,7.35
2022-10-19T21:06:15.269Z,8.35
2022-10-19T21:08:41.634Z,11.35
2022-10-19T21:11:12.117Z,7.32
2022-10-19T21:13:38.409Z,9.40
2022-10-19T21:16:12.159Z,10.27
2022-10-19T21:18:38.533Z,8.80
2022-10-19T21:21:21.826Z,7.80
2022-10-19T21:23:49.462Z,8.57
2022-10-19T21:26:16.213Z,8.57
2022-10-19T21:31:09.426Z,8.27
2022-10-19T21:33:35.888Z,11.48
2022-10-19T21:36:03.094Z,7.32
2022-10-19T21:38:29.586Z,9.57
2022-10-19T21:40:59.580Z,8.77
2022-10-19T21:43:25.914Z,7.25
2022-10-19T21:45:52.234Z,10.48
2022-10-19T21:48:18.752Z,8.43
2022-10-19T21:50:45.052Z,6.90
2022-10-19T21:53:11.335Z,7.15
2022-10-19T21:55:37.666Z,9.32
2022-10-19T21:58:04.638Z,7.70
2022-10-19T22:00:30.989Z,8.52
2022-10-19T22:02:57.252Z,8.50
2022-10-19T22:05:23.553Z,8.70
2022-10-19T22:07:49.811Z,7.93
2022-10-19T22:10:16.081Z,6.03
2022-10-19T22:12:42.358Z,6.72
2022-10-19T22:15:08.874Z,9.93
2022-10-19T22:17:35.172Z,12.20
2022-10-19T22:20:01.436Z,8.32
2022-10-19T22:22:27.723Z,8.82
2022-10-19T22:24:53.991Z,10.05
2022-10-19T22:27:20.249Z,8.27
2022-10-19T22:29:46.727Z,6.88
2022-10-19T22:32:13.005Z,10.63
2022-10-19T22:34:39.288Z,6.72
2022-10-19T22:37:05.686Z,8.10
2022-10-19T22:39:32.017Z,7.55
2022-10-19T22:42:04.303Z,5.43
2022-10-19T22:44:30.833Z,8.98
2022-10-19T22:46:57.722Z,6.47
2022-10-19T22:51:50.300Z,6.05
2022-10-19T22:54:16.699Z,9.05
2022-10-19T22:56:43.215Z,7.82
2022-10-19T22:59:09.654Z,8.77
2022-10-19T23:01:36.061Z,5.55
2022-10-19T23:04:02.537Z,7.93
2022-10-19T23:06:28.834Z,7.13
2022-10-19T23:08:55.387Z,8.85
2022-10-19T23:11:22.355Z,6.70
2022-10-19T23:13:48.660Z,8.60
2022-10-19T23:16:14.986Z,8.50
2022-10-19T23:18:41.374Z,11.20
2022-10-19T23:21:08.907Z,10.70
2022-10-19T23:23:35.385Z,7.07
2022-10-19T23:26:03.539Z,9.20
2022-10-19T23:28:30.522Z,7.97
2022-10-19T23:30:58.504Z,10.75
2022-10-19T23:33:25.637Z,11.30
2022-10-19T23:35:51.966Z,7.50
2022-10-19T23:38:18.298Z,10.50
2022-10-19T23:40:44.786Z,10.90
2022-10-19T23:43:11.491Z,8.77
2022-10-19T23:45:39.063Z,11.90
2022-10-19T23:48:05.371Z,10.05
2022-10-19T23:50:31.651Z,10.67
2022-10-19T23:52:57.927Z,8.43
2022-10-19T23:55:24.187Z,10.25
2022-10-19T23:57:50.450Z,8.85
